createdAt,value
2023-04-12T00:02:40.519Z,11.27
2023-04-12T00:05:10.428Z,8.55
2023-04-12T00:07:43.164Z,7.45
2023-04-12T00:10:15.749Z,6.40
2023-04-12T00:12:47.621Z,6.38
2023-04-12T00:15:16.028Z,8.07
2023-04-12T00:17:43.798Z,5.78
2023-04-12T00:20:14.685Z,8.55
2023-04-12T00:22:44.322Z,6.70
2023-04-12T00:25:20.356Z,6.68
2023-04-12T00:27:53.032Z,6.28
2023-04-12T00:30:22.342Z,6.63
2023-04-12T00:32:50.945Z,4.13
2023-04-12T00:35:31.385Z,5.47
2023-04-12T00:38:14.323Z,4.97
2023-04-12T00:40:52.212Z,6.70
2023-04-12T00:43:24.675Z,6.20
2023-04-12T00:45:53.672Z,6.10
2023-04-12T00:48:48.705Z,6.30
2023-04-12T00:51:23.707Z,4.68
2023-04-12T00:54:00.808Z,7.32
2023-04-12T00:56:31.118Z,5.07
2023-04-12T00:59:26.238Z,5.60
2023-04-12T01:02:11.670Z,6.72
2023-04-12T01:04:43.665Z,5.32
2023-04-12T01:07:47.878Z,7.97
2023-04-12T01:10:35.022Z,8.48
2023-04-12T01:13:21.737Z,7.32
2023-04-12T01:16:12.716Z,5.70
2023-04-12T01:21:20.539Z,5.15
2023-04-12T01:24:12.974Z,8.65
2023-04-12T01:26:54.431Z,7.90
2023-04-12T01:32:04.810Z,7.32
2023-04-12T01:34:48.782Z,6.20
2023-04-12T01:40:03.929Z,5.50
2023-04-12T01:42:44.365Z,5.72
2023-04-12T01:45:19.295Z,7.20
2023-04-12T01:47:51.467Z,5.47
2023-04-12T01:50:19.196Z,8.10
2023-04-12T01:53:03.046Z,6.38
2023-04-12T01:55:37.154Z,4.57
2023-04-12T01:58:09.113Z,7.28
2023-04-12T02:00:38.691Z,6.82
2023-04-12T02:03:19.589Z,8.02
2023-04-12T02:08:55.915Z,7.43
2023-04-12T02:11:39.766Z,6.68
2023-04-12T02:14:12.506Z,7.05
2023-04-12T02:16:55.250Z,6.80
2023-04-12T02:19:24.251Z,10.38
2023-04-12T02:21:58.170Z,8.05
2023-04-12T02:24:37.512Z,7.35
2023-04-12T02:27:36.462Z,8.05
2023-04-12T02:30:19.795Z,10.23
2023-04-12T02:33:02.827Z,6.03
2023-04-12T02:35:34.792Z,5.82
2023-04-12T02:38:17.175Z,7.65
2023-04-12T02:40:50.980Z,8.63
2023-04-12T02:46:04.090Z,5.00
2023-04-12T02:48:36.595Z,6.72
2023-04-12T02:51:14.393Z,8.60
2023-04-12T02:53:59.062Z,8.98
2023-04-12T02:56:45.930Z,6.07
2023-04-12T02:59:25.236Z,6.50
2023-04-12T03:02:12.965Z,7.53
2023-04-12T03:04:50.535Z,5.22
2023-04-12T03:07:31.665Z,5.85
2023-04-12T03:10:09.306Z,10.63
2023-04-12T03:12:43.314Z,7.20
2023-04-12T03:15:23.642Z,5.35
2023-04-12T03:18:05.108Z,4.85
2023-04-12T03:20:47.720Z,6.47
2023-04-12T03:23:51.578Z,9.05
2023-04-12T03:26:21.601Z,6.78
2023-04-12T03:29:06.055Z,4.90
2023-04-12T03:31:42.106Z,3.85
2023-04-12T03:34:13.258Z,5.70
2023-04-12T03:36:48.418Z,5.55
2023-04-12T03:39:16.669Z,5.78
2023-04-12T03:41:58.866Z,4.90
2023-04-12T03:44:34.927Z,5.25
2023-04-12T03:47:06.900Z,7.80
2023-04-12T03:49:35.622Z,5.15
2023-04-12T03:52:15.323Z,6.40
2023-04-12T03:54:44.730Z,6.15
2023-04-12T03:57:21.199Z,5.45
2023-04-12T04:00:02.624Z,7.63
2023-04-12T04:02:37.567Z,6.97
2023-04-12T04:05:12.293Z,7.88
2023-04-12T04:07:55.363Z,4.78
2023-04-12T04:13:28.986Z,6.63
2023-04-12T04:16:08.285Z,8.20
2023-04-12T04:21:28.899Z,6.43
2023-04-12T04:24:12.573Z,9.32
2023-04-12T04:26:42.282Z,5.75
2023-04-12T04:29:14.359Z,6.13
2023-04-12T04:31:56.491Z,4.97
2023-04-12T04:34:39.852Z,5.15
2023-04-12T04:37:13.072Z,8.93
2023-04-12T04:40:02.020Z,7.13
2023-04-12T04:42:34.983Z,8.38
2023-04-12T04:45:28.449Z,9.00
2023-04-12T04:47:59.891Z,6.70
2023-04-12T04:50:35.286Z,5.60
2023-04-12T04:53:04.950Z,6.78
2023-04-12T04:55:43.003Z,7.03
2023-04-12T04:58:15.680Z,6.85
2023-04-12T05:00:47.867Z,5.93
2023-04-12T05:03:18.038Z,5.88
2023-04-12T05:05:45.931Z,7.05
2023-04-12T05:08:26.706Z,7.97
2023-04-12T05:11:11.772Z,10.50
2023-04-12T05:13:40.558Z,7.18
2023-04-12T05:16:17.077Z,7.22
2023-04-12T05:18:47.761Z,4.93
2023-04-12T05:21:16.144Z,6.32
2023-04-12T05:23:45.264Z,5.07
2023-04-12T05:26:15.359Z,6.10
2023-04-12T05:28:42.487Z,5.53
2023-04-12T05:31:17.188Z,6.47
2023-04-12T05:33:59.716Z,8.40
2023-04-12T05:36:32.425Z,5.43
2023-04-12T05:39:03.464Z,5.35
2023-04-12T05:41:32.138Z,6.82
2023-04-12T05:44:03.272Z,6.68
2023-04-12T05:46:32.531Z,8.43
2023-04-12T05:49:21.252Z,5.93
2023-04-12T05:51:50.754Z,6.22
2023-04-12T05:54:24.560Z,10.07
2023-04-12T05:57:01.651Z,9.35
2023-04-12T05:59:29.825Z,6.80
2023-04-12T06:02:06.402Z,5.63
2023-04-12T06:04:48.714Z,5.68
2023-04-12T06:07:23.516Z,8.13
2023-04-12T06:10:04.346Z,12.23
2023-04-12T06:12:38.370Z,3.85
2023-04-12T06:15:28.892Z,4.03
2023-04-12T06:18:03.584Z,4.50
2023-04-12T06:20:38.877Z,4.88
2023-04-12T06:23:07.623Z,5.93
2023-04-12T06:25:35.961Z,5.63
2023-04-12T06:28:08.107Z,4.75
2023-04-12T06:30:49.908Z,11.38
2023-04-12T06:33:27.723Z,6.60
2023-04-12T06:35:58.357Z,4.90
2023-04-12T06:38:27.021Z,6.88
2023-04-12T06:40:59.428Z,6.07
2023-04-12T06:43:41.894Z,7.90
2023-04-12T06:46:18.904Z,5.55
2023-04-12T06:48:49.635Z,6.25
2023-04-12T06:51:25.564Z,7.63
2023-04-12T06:53:55.376Z,7.68
2023-04-12T06:56:40.653Z,9.95
2023-04-12T06:59:11.747Z,9.13
2023-04-12T07:01:41.923Z,5.68
2023-04-12T07:04:12.705Z,6.20
2023-04-12T07:06:40.911Z,6.05
2023-04-12T07:09:10.644Z,8.07
2023-04-12T07:11:47.002Z,9.30
2023-04-12T07:14:19.796Z,7.72
2023-04-12T07:16:52.021Z,7.07
2023-04-12T07:19:23.120Z,7.28
2023-04-12T07:22:00.494Z,8.68
2023-04-12T07:24:40.237Z,9.05
2023-04-12T07:27:20.405Z,10.75
2023-04-12T07:30:09.873Z,10.40
2023-04-12T07:32:41.652Z,9.50
2023-04-12T07:35:12.460Z,9.00
2023-04-12T07:37:42.329Z,9.35
2023-04-12T07:40:15.757Z,15.33
2023-04-12T07:42:46.511Z,11.57
2023-04-12T07:48:03.388Z,13.50
2023-04-12T07:50:44.825Z,10.55
2023-04-12T07:53:25.082Z,12.40
2023-04-12T07:55:58.902Z,10.52
2023-04-12T07:58:33.411Z,14.40
2023-04-12T08:01:05.681Z,8.90
2023-04-12T08:03:42.143Z,11.55
2023-04-12T08:06:10.959Z,10.38
2023-04-12T08:08:39.772Z,11.45
2023-04-12T08:11:10.768Z,10.75
2023-04-12T08:13:43.862Z,10.23
2023-04-12T08:16:15.603Z,12.23
2023-04-12T08:18:46.453Z,14.68
2023-04-12T08:24:26.527Z,12.05
2023-04-12T08:27:05.357Z,11.52
2023-04-12T08:29:37.625Z,13.80
2023-04-12T08:32:13.474Z,14.57
2023-04-12T08:34:46.073Z,11.43
2023-04-12T08:37:24.671Z,13.77
2023-04-12T08:40:01.463Z,12.60
2023-04-12T08:42:32.947Z,12.55
2023-04-12T08:45:01.490Z,12.27
2023-04-12T08:47:34.647Z,15.73
2023-04-12T08:50:04.002Z,14.88
2023-04-12T08:52:38.209Z,14.05
2023-04-12T08:55:26.555Z,14.45
2023-04-12T08:57:55.749Z,21.67
2023-04-12T09:00:31.087Z,12.38
2023-04-12T09:03:04.653Z,15.55
2023-04-12T09:05:35.791Z,12.82
2023-04-12T09:08:21.248Z,14.20
2023-04-12T09:10:59.732Z,14.10
2023-04-12T09:13:42.842Z,15.60
2023-04-12T09:16:19.238Z,13.93
2023-04-12T09:19:14.524Z,17.08
2023-04-12T09:22:00.588Z,17.40
2023-04-12T09:24:51.032Z,11.23
2023-04-12T09:27:26.148Z,10.27
2023-04-12T09:30:12.339Z,19.10
2023-04-12T09:32:47.413Z,13.10
2023-04-12T09:35:21.599Z,15.80
2023-04-12T09:38:09.649Z,20.45
2023-04-12T09:40:41.903Z,14.60
2023-04-12T09:43:12.030Z,14.98
2023-04-12T09:45:40.751Z,11.90
2023-04-12T09:48:33.246Z,21.40
2023-04-12T09:51:02.721Z,14.80
2023-04-12T09:53:31.014Z,9.65
2023-04-12T09:56:01.805Z,11.20
2023-04-12T10:01:18.609Z,17.98
2023-04-12T10:03:59.043Z,16.45
2023-04-12T10:06:29.535Z,15.13
2023-04-12T10:09:00.844Z,11.10
2023-04-12T10:11:35.634Z,14.07
2023-04-12T10:14:18.689Z,15.30
2023-04-12T10:16:52.834Z,15.52
2023-04-12T10:19:27.237Z,18.38
2023-04-12T10:22:03.808Z,18.67
2023-04-12T10:24:33.141Z,20.38
2023-04-12T10:27:07.615Z,12.10
2023-04-12T10:29:40.919Z,13.10
2023-04-12T10:32:22.880Z,13.27
2023-04-12T10:35:00.266Z,14.70
2023-04-12T10:37:54.602Z,13.13
2023-04-12T10:40:22.338Z,13.90
2023-04-12T10:43:20.691Z,14.27
2023-04-12T10:46:07.877Z,13.82
2023-04-12T10:48:59.236Z,20.05
2023-04-12T10:51:30.202Z,14.52
2023-04-12T10:54:13.042Z,11.10
2023-04-12T10:56:55.543Z,11.60
2023-04-12T10:59:34.144Z,13.15
2023-04-12T11:02:31.686Z,11.48
2023-04-12T11:05:15.302Z,13.60
2023-04-12T11:07:46.134Z,17.73
2023-04-12T11:12:53.204Z,14.98
2023-04-12T11:15:26.977Z,15.93
2023-04-12T11:17:59.695Z,11.90
2023-04-12T11:20:40.667Z,18.88
2023-04-12T11:23:13.710Z,9.25
2023-04-12T11:25:45.709Z,11.40
2023-04-12T11:28:28.663Z,15.65
2023-04-12T11:31:12.925Z,20.80
2023-04-12T11:33:43.143Z,19.58
2023-04-12T11:36:17.214Z,12.60
2023-04-12T11:38:52.145Z,10.80
2023-04-12T11:41:35.172Z,15.73
2023-04-12T11:44:08.976Z,13.27
2023-04-12T11:46:40.678Z,13.43
2023-04-12T11:52:05.344Z,9.30
2023-04-12T11:54:39.503Z,12.77
2023-04-12T12:00:01.144Z,12.05
2023-04-12T12:02:42.984Z,9.52
2023-04-12T12:05:22.023Z,7.78
2023-04-12T12:07:50.300Z,11.55
2023-04-12T12:10:37.884Z,5.28
2023-04-12T12:13:13.528Z,6.40
2023-04-12T12:15:57.307Z,6.20
2023-04-12T12:18:32.334Z,5.10
2023-04-12T12:21:03.806Z,7.30
2023-04-12T12:23:37.955Z,7.65
2023-04-12T12:26:18.931Z,9.73
2023-04-12T12:28:53.854Z,8.35
2023-04-12T12:31:43.208Z,11.32
2023-04-12T12:34:16.086Z,8.80
2023-04-12T12:36:57.573Z,9.43
2023-04-12T12:39:31.376Z,8.65
2023-04-12T12:42:20.339Z,4.80
2023-04-12T12:44:51.688Z,7.38
2023-04-12T12:47:20.127Z,4.60
2023-04-12T12:49:53.364Z,10.30
2023-04-12T12:52:23.770Z,8.93
2023-04-12T12:54:53.808Z,8.80
2023-04-12T12:57:31.243Z,11.85
2023-04-12T13:00:04.715Z,5.68
2023-04-12T13:02:35.248Z,8.10
2023-04-12T13:07:38.739Z,10.75
2023-04-12T13:10:10.097Z,9.63
2023-04-12T13:12:40.413Z,9.20
2023-04-12T13:15:21.374Z,7.85
2023-04-12T13:18:06.300Z,9.75
2023-04-12T13:20:37.112Z,7.28
2023-04-12T13:23:19.339Z,8.77
2023-04-12T13:25:54.807Z,7.70
2023-04-12T13:28:26.833Z,4.10
2023-04-12T13:30:57.350Z,5.95
2023-04-12T13:33:26.837Z,8.55
2023-04-12T13:36:01.211Z,6.15
2023-04-12T13:39:01.357Z,5.45
2023-04-12T13:41:35.518Z,4.28
2023-04-12T13:44:05.205Z,4.60
2023-04-12T13:46:34.645Z,5.22
2023-04-12T13:49:20.067Z,5.70
2023-04-12T13:51:48.276Z,4.22
2023-04-12T13:54:25.553Z,3.58
2023-04-12T13:57:08.749Z,4.68
2023-04-12T13:59:39.364Z,6.80
2023-04-12T14:02:09.690Z,3.88
2023-04-12T14:04:54.608Z,3.88
2023-04-12T14:07:35.065Z,4.45
2023-04-12T14:10:09.623Z,4.55
2023-04-12T14:12:39.811Z,4.50
2023-04-12T14:15:17.612Z,5.72
2023-04-12T14:17:45.576Z,3.67
2023-04-12T14:20:18.894Z,4.00
2023-04-12T14:22:51.877Z,3.55
2023-04-12T14:25:21.054Z,6.28
2023-04-12T14:27:56.810Z,4.47
2023-04-12T14:30:35.564Z,6.63
2023-04-12T14:33:14.390Z,6.82
2023-04-12T14:35:45.496Z,9.10
2023-04-12T14:38:16.951Z,6.25
2023-04-12T14:40:51.442Z,7.00
2023-04-12T14:43:21.054Z,5.72
2023-04-12T14:45:57.784Z,4.53
2023-04-12T14:48:32.140Z,5.93
2023-04-12T14:51:09.365Z,5.47
2023-04-12T14:53:53.014Z,3.53
2023-04-12T14:56:43.474Z,5.50
2023-04-12T14:59:17.139Z,3.55
2023-04-12T15:01:51.518Z,4.32
2023-04-12T15:04:21.409Z,3.42
2023-04-12T15:06:54.111Z,5.72
2023-04-12T15:09:27.711Z,4.50
2023-04-12T15:12:01.813Z,3.60
2023-04-12T15:14:34.360Z,4.38
2023-04-12T15:17:04.435Z,3.45
2023-04-12T15:19:35.268Z,2.83
2023-04-12T15:22:18.403Z,5.00
2023-04-12T15:24:59.275Z,3.83
2023-04-12T15:27:37.769Z,4.32
2023-04-12T15:30:10.683Z,4.63
2023-04-12T15:32:47.092Z,4.78
2023-04-12T15:35:26.636Z,4.47
2023-04-12T15:40:29.127Z,4.88
2023-04-12T15:46:00.497Z,3.92
2023-04-12T15:48:35.663Z,3.92
2023-04-12T15:51:04.472Z,5.38
2023-04-12T15:56:52.838Z,3.67
2023-04-12T15:59:32.883Z,4.95
2023-04-12T16:02:29.054Z,4.55
2023-04-12T16:05:20.022Z,5.25
2023-04-12T16:08:17.143Z,4.68
2023-04-12T16:10:59.690Z,4.80
2023-04-12T16:13:47.002Z,4.07
2023-04-12T16:16:18.274Z,4.22
2023-04-12T16:18:46.732Z,4.70
2023-04-12T16:21:35.077Z,2.40
2023-04-12T16:24:04.174Z,4.40
2023-04-12T16:26:43.098Z,4.78
2023-04-12T16:29:19.055Z,4.25
2023-04-12T16:31:59.050Z,4.13
2023-04-12T16:34:37.888Z,3.92
2023-04-12T16:37:12.050Z,3.95
2023-04-12T16:39:38.330Z,3.22
2023-04-12T16:42:06.487Z,3.25
2023-04-12T16:44:33.413Z,8.07
2023-04-12T16:46:59.767Z,3.50
2023-04-12T16:49:26.495Z,5.60
2023-04-12T16:51:53.059Z,3.40
2023-04-12T16:54:19.361Z,5.03
2023-04-12T16:56:47.198Z,5.82
2023-04-12T16:59:13.680Z,5.90
2023-04-12T17:01:40.135Z,4.18
2023-04-12T17:04:06.627Z,5.13
2023-04-12T17:06:34.096Z,4.82
2023-04-12T17:09:00.765Z,5.47
2023-04-12T17:11:27.854Z,5.90
2023-04-12T17:13:54.268Z,5.32
2023-04-12T17:16:20.842Z,5.07
2023-04-12T17:18:47.124Z,3.75
2023-04-12T17:21:17.568Z,5.18
2023-04-12T17:23:43.914Z,6.53
2023-04-12T17:26:10.594Z,4.90
2023-04-12T17:28:39.414Z,5.03
2023-04-12T17:31:06.332Z,2.78
2023-04-12T17:33:32.786Z,3.38
2023-04-12T17:35:59.186Z,6.07
2023-04-12T17:38:25.698Z,8.38
2023-04-12T17:40:52.291Z,5.28
2023-04-12T17:43:18.711Z,6.03
2023-04-12T17:45:45.340Z,5.75
2023-04-12T17:48:14.531Z,5.32
2023-04-12T17:50:41.828Z,3.60
2023-04-12T17:53:08.203Z,5.80
2023-04-12T17:55:36.514Z,3.33
2023-04-12T17:58:03.551Z,5.45
2023-04-12T18:00:30.041Z,6.15
2023-04-12T18:02:56.862Z,5.78
2023-04-12T18:05:23.390Z,4.85
2023-04-12T18:07:49.798Z,4.78
2023-04-12T18:10:18.889Z,6.53
2023-04-12T18:15:13.295Z,5.20
2023-04-12T18:17:39.842Z,6.88
2023-04-12T18:20:14.029Z,6.28
2023-04-12T18:22:40.577Z,5.63
2023-04-12T18:25:11.592Z,5.75
2023-04-12T18:27:37.990Z,9.02
2023-04-12T18:30:05.003Z,6.15
2023-04-12T18:32:31.567Z,4.90
2023-04-12T18:34:57.942Z,5.43
2023-04-12T18:37:24.375Z,5.30
2023-04-12T18:39:53.286Z,10.25
2023-04-12T18:42:20.040Z,8.38
2023-04-12T18:44:46.453Z,7.63
2023-04-12T18:47:12.882Z,6.40
2023-04-12T18:49:39.543Z,6.80
2023-04-12T18:52:06.014Z,10.05
2023-04-12T18:54:32.419Z,8.57
2023-04-12T18:57:01.655Z,7.55
2023-04-12T18:59:28.077Z,9.50
2023-04-12T19:01:54.464Z,5.10
2023-04-12T19:04:20.869Z,6.95
2023-04-12T19:06:47.440Z,5.63
2023-04-12T19:09:14.023Z,7.35
2023-04-12T19:11:40.573Z,7.75
2023-04-12T19:14:08.134Z,10.95
2023-04-12T19:16:34.825Z,11.02
2023-04-12T19:19:01.224Z,9.20
2023-04-12T19:21:31.630Z,10.48
2023-04-12T19:23:58.398Z,12.73
2023-04-12T19:26:25.855Z,14.05
2023-04-12T19:28:55.285Z,14.18
2023-04-12T19:31:21.679Z,11.90
2023-04-12T19:33:48.086Z,8.73
2023-04-12T19:36:15.413Z,9.73
2023-04-12T19:38:44.064Z,6.90
2023-04-12T19:41:10.787Z,9.00
2023-04-12T19:43:37.198Z,7.32
2023-04-12T19:46:07.451Z,6.88
2023-04-12T19:48:33.826Z,9.52
2023-04-12T19:51:00.291Z,8.60
2023-04-12T19:53:26.851Z,10.30
2023-04-12T19:55:56.968Z,7.80
2023-04-12T19:58:23.414Z,8.93
2023-04-12T20:00:54.520Z,7.25
2023-04-12T20:03:20.934Z,6.95
2023-04-12T20:05:47.820Z,11.48
2023-04-12T20:08:15.831Z,8.13
2023-04-12T20:10:42.741Z,11.20
2023-04-12T20:13:14.900Z,7.00
2023-04-12T20:15:42.180Z,12.35
2023-04-12T20:18:11.248Z,6.35
2023-04-12T20:20:38.081Z,9.05
2023-04-12T20:23:04.666Z,10.10
2023-04-12T20:25:35.452Z,5.72
2023-04-12T20:28:02.743Z,7.65
2023-04-12T20:30:30.080Z,7.03
2023-04-12T20:32:56.691Z,7.25
2023-04-12T20:35:23.123Z,7.20
2023-04-12T20:37:51.177Z,9.07
2023-04-12T20:40:17.813Z,5.45
2023-04-12T20:42:45.236Z,7.25
2023-04-12T20:45:12.156Z,9.77
2023-04-12T20:47:38.535Z,6.68
2023-04-12T20:50:05.384Z,7.63
2023-04-12T20:52:35.053Z,7.68
2023-04-12T20:55:02.352Z,11.38
2023-04-12T20:57:29.045Z,4.10
2023-04-12T20:59:55.446Z,6.10
2023-04-12T21:02:22.353Z,5.00
2023-04-12T21:04:49.222Z,7.72
2023-04-12T21:07:15.964Z,5.72
2023-04-12T21:09:42.385Z,5.88
2023-04-12T21:12:09.711Z,5.20
2023-04-12T21:14:37.437Z,4.15
2023-04-12T21:17:06.934Z,6.88
2023-04-12T21:19:38.855Z,5.50
2023-04-12T21:22:06.802Z,6.10
2023-04-12T21:24:38.093Z,5.72
2023-04-12T21:27:06.699Z,7.85
2023-04-12T21:29:34.466Z,4.45
2023-04-12T21:32:02.198Z,3.22
2023-04-12T21:34:29.647Z,5.38
2023-04-12T21:36:59.910Z,6.72
2023-04-12T21:39:26.726Z,5.15
2023-04-12T21:41:53.239Z,3.05
2023-04-12T21:44:19.986Z,3.53
2023-04-12T21:46:46.319Z,3.17
2023-04-12T21:49:13.170Z,4.20
2023-04-12T21:51:39.606Z,4.65
2023-04-12T21:54:06.062Z,2.70
2023-04-12T21:56:32.428Z,4.43
2023-04-12T21:59:00.130Z,4.15
2023-04-12T22:01:27.176Z,3.67
2023-04-12T22:03:54.021Z,4.05
2023-04-12T22:06:20.598Z,3.15
2023-04-12T22:08:48.165Z,4.20
2023-04-12T22:11:14.507Z,4.30
2023-04-12T22:13:41.830Z,3.00
2023-04-12T22:16:13.508Z,2.78
2023-04-12T22:18:40.680Z,3.20
2023-04-12T22:21:08.160Z,5.50
2023-04-12T22:23:40.456Z,3.58
2023-04-12T22:26:09.922Z,6.55
2023-04-12T22:28:37.894Z,3.67
2023-04-12T22:31:14.334Z,3.67
2023-04-12T22:33:40.902Z,3.35
2023-04-12T22:36:07.368Z,4.07
2023-04-12T22:38:34.676Z,6.15
2023-04-12T22:41:06.254Z,4.13
2023-04-12T22:43:42.155Z,3.45
2023-04-12T22:46:16.265Z,7.00
2023-04-12T22:48:43.376Z,4.03
2023-04-12T22:51:11.169Z,4.22
2023-04-12T22:53:37.755Z,4.97
2023-04-12T22:56:04.203Z,3.00
2023-04-12T22:58:31.312Z,4.00
2023-04-12T23:00:58.475Z,2.72
2023-04-12T23:03:24.902Z,5.05
2023-04-12T23:05:51.359Z,4.38
2023-04-12T23:08:21.851Z,5.85
2023-04-12T23:10:48.517Z,8.23
2023-04-12T23:13:15.288Z,4.25
2023-04-12T23:15:42.533Z,3.05
2023-04-12T23:18:09.006Z,5.07
2023-04-12T23:20:35.368Z,4.35
2023-04-12T23:23:01.810Z,3.45
2023-04-12T23:25:38.936Z,3.47
2023-04-12T23:28:09.620Z,3.25
2023-04-12T23:30:36.093Z,4.75
2023-04-12T23:33:02.522Z,4.22
2023-04-12T23:35:28.903Z,6.63
2023-04-12T23:37:56.146Z,3.65
2023-04-12T23:40:22.938Z,4.15
2023-04-12T23:42:50.825Z,7.20
2023-04-12T23:45:17.200Z,2.95
2023-04-12T23:47:43.547Z,3.50
2023-04-12T23:50:10.476Z,6.05
2023-04-12T23:52:37.200Z,4.13
2023-04-12T23:55:06.789Z,3.33
2023-04-12T23:57:33.152Z,6.28
2023-04-12T23:59:59.538Z,2.40
